Terminal Aerodrome Forecast
Issued by NWS Green Bay, WI

Home | Current Version | Previous Version | Graphics & Text | Print | Product List | Glossary On
Versions: 1 2 3 4 5 6 7 8 9 10 11 12 13 14 15 16 17 18 19 20 21 22 23 24 25 26 27 28 29 30 31 32 33 34
000
FTUS43 KGRB 162000 AAA
TAFGRB
TAF AMD
KGRB 162055Z 1621/1718 32012G18KT 6SM -SN BR SCT015 OVC030
      TEMPO 1701/1705 2SM -SN BR BKN015
     FM170500 30012KT P6SM -SN SCT020 OVC028
     FM171400 30013G19KT P6SM SCT020 BKN035=

USA.gov is the U.S. government's official web portal to all federal, state and local government web resources and services.